Langdon, ND

17:55 CST le 23 novembre 2014 (GMT -0600)
Cavalier | Change Station
CLOSE
Current Station
Aéroport
Location: Cavalier,
Altitude: 892 ft
Stations météo à proximité
Avis météorologiques actifs: Freezing Rain Advisory, Wind Advisory, Special Statement

Alt. 892 ft 48.78 °N, 97.63 °W | Updated 20 minutes ago

Couvert
Couvert
18 ° F
Paraît 1 ° F
N
20
Vent Variable Vent de NNO
Gusts 31 mph

Aujourd'hui
Haut(e) -- | Bas -- ° F
--% Risque de précip.
Hier
Haut(e) -- | Bas -- ° F
Precip. -- pouce
7:54 AM 4:45 PM
Lune montante, 3% visible
Pression 29.57 pouce
Visibilité 2.5 Miles terrestres
Nuages Nuageux 800 ft
Couvert 1400 ft
Refroidissement éolien 1 ° F
Point de rosée 16 ° F
Humidité 93%
Précipitations 0.01 pouce
Profondeur de la couche neigeuse Non disponible.
UV 0 sur 12
Pollen .10 sur 12
Qualité de l'air Non disponible.
Flu Activity Non disponible.
METAR K2C8 232335Z AUTO 34017G27KT 2 1/2SM -SN BKN008 OVC014 M08/M09 A2957 RMK AO2 P0001

More Conditions Fewer Conditions

Pression 29.57 pouce
Visibilité 2.5 Miles terrestres
Nuages Nuageux 800 ft
Couvert 1400 ft
Refroidissement éolien 1 ° F
Point de rosée 16 ° F
Humidité 93%
Précipitations 0.01 pouce
Profondeur de la couche neigeuse Non disponible.
UV 0 sur 12
Pollen .10 sur 12
Qualité de l'air Non disponible.
Flu Activity Non disponible.
METAR K2C8 232335Z AUTO 34017G27KT 2 1/2SM -SN BKN008 OVC014 M08/M09 A2957 RMK AO2 P0001

More Conditions Fewer Conditions

10-Day Weather Forecast

Almanac

Astronomie

Nov. 23, 2014 Lever Coucher
Temps réel
Crépuscule civil
Crépuscule nautique
Crépuscule astronomique
Lune
Durée de lumière visible
Longueur du jour
Tomorrow will be .
, % of the Moon is Illuminated

Extrêmes aujourd'hui

State Highs State Lows

Community

WunderPhotos

Upload Photos

1,773,211 Photos téléchargées !

WunderBlogs® & News

Nearby

Qualité de l'air

  Qualité de l'air Indice de la qualité de l'air Polluant
Not available.

Épaisseur de neige

Station Depth Altitude

Activité sismique

Ville Distance Mag. Time & Date
Minimum magnitude displayed is 2.5.

Températures des eaux côtières

Lieu Température

Stations météo à proximité